Time;durP1;ratioP1;P1;durP2;ratioP2;P2;SDS_P1;SDS_P2;PMS_P1;PMS_P2;Temp;Humidity;BMP_temperature;BMP_pressure;BME280_temperature;BME280_humidity;BME280_pressure;Samples;Min_cycle;Max_cycle;Signal;HPM_P1;HPM_P2
2022/04/03 00:01:28;;;;;;;;;;;;;;;2.39;68.82;102354.97;4968772;28;19918;-33
2022/04/03 00:03:53;;;;;;;;;;;;;;;2.55;67.63;102351.41;4968821;28;19914;-34
2022/04/03 00:06:19;;;;;;;;;;;;;;;2.52;68.43;102352.44;4969126;28;19929;-31
2022/04/03 00:08:44;;;;;;;;;;;;;;;2.47;69.46;102345.69;4968533;28;19918;-31
2022/04/03 00:11:10;;;;;;;;;;;;;;;2.42;69.99;102354.81;4967291;28;20009;-32
2022/04/03 00:13:36;;;;;;;;;;;;;;;2.42;71.16;102354.81;4967565;28;19921;-32
2022/04/03 00:16:02;;;;;;;;;;;;;;;2.40;71.97;102356.72;4968936;28;19984;-31
2022/04/03 00:18:27;;;;;;;;;;;;;;;2.40;72.41;102351.41;4967248;28;19957;-34
2022/04/03 00:20:52;;;;;;;;;;;;;;;2.39;71.69;102357.63;4967522;28;19968;-31
2022/04/03 00:23:18;;;;;;;;;;;;;;;2.40;71.33;102356.72;4968590;28;19915;-33
2022/04/03 00:25:43;;;;;;;;;;;;;;;2.42;71.74;102354.81;4970141;28;19914;-33
2022/04/03 00:28:08;;;;;;;;;;;;;;;2.50;72.65;102350.81;4967495;28;19918;-32
2022/04/03 00:30:34;;;;;;;;;;;;;;;2.58;73.39;102348.56;4951073;28;19914;-33
2022/04/03 00:32:59;;;;;;;;;;;;;;;2.59;73.17;102350.28;4968630;28;20147;-32
2022/04/03 00:35:24;;;;;;;;;;;;;;;2.63;72.84;102351.78;4968703;28;19921;-31
2022/04/03 00:37:50;;;;;;;;;;;;;;;2.64;73.26;102351.72;4968411;28;19972;-35
2022/04/03 00:40:16;;;;;;;;;;;;;;;2.63;73.42;102347.38;4967150;28;19926;-31
2022/04/03 00:42:41;;;;;;;;;;;;;;;2.55;73.01;102343.44;4970578;28;20404;-32
2022/04/03 00:45:06;;;;;;;;;;;;;;;2.55;73.12;102356.72;4970564;28;19921;-31
2022/04/03 00:47:32;;;;;;;;;;;;;;;2.57;73.36;102346.88;4971639;28;20311;-32
2022/04/03 00:49:57;;;;;;;;;;;;;;;2.64;74.09;102348.22;4970546;28;20359;-32
2022/04/03 00:52:23;;;;;;;;;;;;;;;2.70;74.08;102349.63;4970355;28;20421;-33
2022/04/03 00:54:48;;;;;;;;;;;;;;;2.70;74.40;102347.81;4970397;28;19922;-33
2022/04/03 00:57:13;;;;;;;;;;;;;;;2.76;73.11;102352.75;4971663;28;19941;-32
2022/04/03 00:59:40;;;;;;;;;;;;;;;2.79;73.61;102347.28;4970392;28;19915;-33
2022/04/03 01:02:05;;;;;;;;;;;;;;;2.79;73.37;102349.94;4971510;28;19914;-33
2022/04/03 01:04:31;;;;;;;;;;;;;;;2.81;73.45;102345.34;4971505;28;19925;-32
2022/04/03 01:06:59;;;;;;;;;;;;;;;2.84;73.45;102342.53;4971613;28;19914;-33
2022/04/03 01:09:24;;;;;;;;;;;;;;;2.86;73.49;102348.59;4971355;28;20383;-33
2022/04/03 01:11:49;;;;;;;;;;;;;;;2.88;73.14;102339.69;4971476;28;19915;-34
2022/04/03 01:14:29;;;;;;;;;;;;;;;2.81;73.37;102334.72;4971247;28;19921;-34
2022/04/03 01:16:54;;;;;;;;;;;;;;;2.77;72.96;102340.34;4971312;28;19925;-31
2022/04/03 01:19:19;;;;;;;;;;;;;;;2.72;73.29;102340.63;4969935;28;19918;-31
2022/04/03 01:21:44;;;;;;;;;;;;;;;2.66;73.65;102338.34;4969999;28;19922;-32
2022/04/03 01:24:17;;;;;;;;;;;;;;;2.62;73.24;102335.00;4970171;28;20257;-31
2022/04/03 01:26:42;;;;;;;;;;;;;;;2.56;73.52;102329.22;4970136;28;19914;-32
2022/04/03 01:29:08;;;;;;;;;;;;;;;2.46;73.54;102322.75;4970010;28;19944;-31
2022/04/03 01:31:33;;;;;;;;;;;;;;;2.37;73.81;102319.69;4971222;28;20005;-31
2022/04/03 01:33:58;;;;;;;;;;;;;;;2.30;73.65;102328.13;4970995;28;20332;-31
2022/04/03 01:36:25;;;;;;;;;;;;;;;2.24;74.71;102320.50;4970936;28;20440;-31
2022/04/03 01:38:50;;;;;;;;;;;;;;;2.16;74.79;102324.50;4971079;28;20364;-31
2022/04/03 01:41:15;;;;;;;;;;;;;;;2.08;74.86;102313.47;4969636;28;19949;-31
2022/04/03 01:43:40;;;;;;;;;;;;;;;2.05;75.47;102318.09;4970883;28;20379;-31
2022/04/03 01:46:05;;;;;;;;;;;;;;;2.04;76.42;102321.72;4969764;28;19914;-31
2022/04/03 01:48:32;;;;;;;;;;;;;;;1.95;75.80;102313.34;4969385;28;19939;-31
2022/04/03 01:50:57;;;;;;;;;;;;;;;1.90;76.69;102318.06;4953500;28;19996;-31
2022/04/03 01:53:22;;;;;;;;;;;;;;;1.84;76.53;102314.88;4969471;28;20400;-32
2022/04/03 01:55:56;;;;;;;;;;;;;;;1.78;76.57;102308.13;4969344;28;19913;-32
2022/04/03 01:58:22;;;;;;;;;;;;;;;1.72;77.15;102311.16;4970738;28;19921;-32
2022/04/03 02:00:47;;;;;;;;;;;;;;;1.70;77.10;102318.34;4970658;28;19914;-31
2022/04/03 02:03:13;;;;;;;;;;;;;;;1.67;77.75;102313.22;4970477;28;19976;-30
2022/04/03 02:05:39;;;;;;;;;;;;;;;1.62;78.15;102315.28;4970680;28;20036;-31
2022/04/03 02:08:05;;;;;;;;;;;;;;;1.58;78.47;102313.72;4973372;28;20372;-33
2022/04/03 02:10:31;;;;;;;;;;;;;;;1.52;77.98;102302.53;4969257;28;19914;-32
2022/04/03 02:12:56;;;;;;;;;;;;;;;1.45;78.35;102305.59;4970601;28;19932;-32
2022/04/03 02:15:21;;;;;;;;;;;;;;;1.41;78.95;102310.25;4970430;28;19922;-31
2022/04/03 02:17:46;;;;;;;;;;;;;;;1.37;79.17;102316.69;4969140;28;20328;-31
2022/04/03 02:20:12;;;;;;;;;;;;;;;1.34;79.22;102310.66;4970335;28;20361;-33
2022/04/03 02:22:37;;;;;;;;;;;;;;;1.28;79.61;102312.72;4969106;28;20329;-31
2022/04/03 02:25:04;;;;;;;;;;;;;;;1.24;79.51;102315.66;4970078;28;19922;-35
2022/04/03 02:27:29;;;;;;;;;;;;;;;1.19;80.02;102313.25;4970527;28;19921;-31
2022/04/03 02:29:54;;;;;;;;;;;;;;;1.22;80.67;102312.22;4968711;28;19910;-32
2022/04/03 02:32:20;;;;;;;;;;;;;;;1.22;80.55;102314.88;4968880;28;19914;-31
2022/04/03 02:34:45;;;;;;;;;;;;;;;1.24;80.85;102313.00;4968615;28;19910;-33
2022/04/03 02:37:11;;;;;;;;;;;;;;;1.27;80.94;102315.47;4970104;28;19918;-32
2022/04/03 02:39:36;;;;;;;;;;;;;;;1.24;80.85;102310.34;4969817;28;19914;-31
2022/04/03 02:42:04;;;;;;;;;;;;;;;1.23;80.89;102313.94;4970164;28;19917;-34
2022/04/03 02:44:30;;;;;;;;;;;;;;;1.18;81.05;102308.03;4968816;28;19950;-31
2022/04/03 02:46:55;;;;;;;;;;;;;;;1.15;81.36;102310.84;4969906;28;19914;-31
2022/04/03 02:49:20;;;;;;;;;;;;;;;1.13;81.76;102318.03;4969891;28;19914;-35
2022/04/03 02:51:46;;;;;;;;;;;;;;;1.07;81.67;102314.75;4969926;28;19914;-38
2022/04/03 02:54:12;;;;;;;;;;;;;;;1.04;81.45;102314.94;4969754;28;20332;-36
2022/04/03 02:56:37;;;;;;;;;;;;;;;1.02;81.75;102316.81;4968533;28;20012;-33
2022/04/03 02:59:02;;;;;;;;;;;;;;;1.01;82.43;102320.41;4968606;28;19960;-35
2022/04/03 03:01:28;;;;;;;;;;;;;;;1.01;82.62;102315.09;4969870;28;19941;-33
2022/04/03 03:03:53;;;;;;;;;;;;;;;0.97;82.51;102305.59;4968438;28;19914;-34
2022/04/03 03:06:19;;;;;;;;;;;;;;;0.91;82.37;102319.19;4969431;28;19921;-35
2022/04/03 03:08:44;;;;;;;;;;;;;;;0.84;82.08;102312.50;4968189;28;19922;-35
2022/04/03 03:11:10;;;;;;;;;;;;;;;0.83;82.82;102310.81;4969707;28;19961;-33
2022/04/03 03:13:36;;;;;;;;;;;;;;;0.82;83.35;102314.41;4969859;28;20084;-35
2022/04/03 03:16:02;;;;;;;;;;;;;;;0.84;83.24;102310.75;4968095;28;20372;-38
2022/04/03 03:18:27;;;;;;;;;;;;;;;0.81;83.65;102312.69;4969515;28;19914;-34
2022/04/03 03:20:52;;;;;;;;;;;;;;;0.78;83.75;102305.75;4969687;28;19921;-35
2022/04/03 03:23:18;;;;;;;;;;;;;;;0.74;83.53;102316.59;4969603;28;19940;-34
2022/04/03 03:25:45;;;;;;;;;;;;;;;0.69;83.85;102313.34;4970958;28;19921;-33
2022/04/03 03:28:10;;;;;;;;;;;;;;;0.67;83.69;102305.47;4969674;28;19960;-35
2022/04/03 03:30:35;;;;;;;;;;;;;;;0.64;83.73;102311.78;4969622;28;19914;-35
2022/04/03 03:33:01;;;;;;;;;;;;;;;0.60;83.96;102315.53;4967941;28;19945;-32
2022/04/03 03:35:26;;;;;;;;;;;;;;;0.59;84.61;102305.03;4967782;28;19914;-32
2022/04/03 03:37:51;;;;;;;;;;;;;;;0.56;84.25;102306.03;4967928;28;19914;-34
2022/04/03 03:40:16;;;;;;;;;;;;;;;0.55;84.63;102311.41;4967792;28;19917;-32
2022/04/03 03:42:42;;;;;;;;;;;;;;;0.53;84.65;102314.16;4951624;28;19918;-32
2022/04/03 03:45:08;;;;;;;;;;;;;;;0.53;84.75;102308.88;4968977;28;20403;-32
2022/04/03 03:47:34;;;;;;;;;;;;;;;0.52;84.41;102301.84;4967832;28;19921;-32
2022/04/03 03:49:59;;;;;;;;;;;;;;;0.50;84.61;102306.38;4967729;28;19922;-31
2022/04/03 03:52:24;;;;;;;;;;;;;;;0.51;84.84;102310.72;4968910;28;20012;-35
2022/04/03 03:54:50;;;;;;;;;;;;;;;0.45;84.31;102300.47;4969033;28;20020;-32
2022/04/03 03:57:15;;;;;;;;;;;;;;;0.43;84.54;102308.47;4951176;28;20040;-33
2022/04/03 03:59:40;;;;;;;;;;;;;;;0.39;84.82;102308.72;4969032;28;20292;-36
2022/04/03 04:02:06;;;;;;;;;;;;;;;0.38;84.87;102312.31;4968860;28;19918;-32
2022/04/03 04:04:31;;;;;;;;;;;;;;;0.39;85.42;102317.50;4968883;28;19914;-32
2022/04/03 04:06:56;;;;;;;;;;;;;;;0.39;85.45;102309.56;4967299;28;19933;-32
2022/04/03 04:09:22;;;;;;;;;;;;;;;0.34;84.90;102316.03;4968788;28;19937;-33
2022/04/03 04:11:47;;;;;;;;;;;;;;;0.27;84.83;102320.81;4969028;28;19921;-31
2022/04/03 04:14:12;;;;;;;;;;;;;;;0.31;85.28;102327.66;4968772;28;19921;-31
2022/04/03 04:16:38;;;;;;;;;;;;;;;0.32;85.87;102326.72;4951933;28;19921;-32
2022/04/03 04:19:03;;;;;;;;;;;;;;;0.31;86.07;102327.66;4972273;28;19924;-33
2022/04/03 04:21:28;;;;;;;;;;;;;;;0.30;85.97;102328.59;4972038;28;19921;-33
2022/04/03 04:23:53;;;;;;;;;;;;;;;0.28;85.70;102329.59;4972308;28;19917;-34
2022/04/03 04:26:19;;;;;;;;;;;;;;;0.19;85.31;102328.28;4972011;28;20332;-32
2022/04/03 04:28:47;;;;;;;;;;;;;;;0.19;85.67;102326.50;4970981;28;20353;-32
2022/04/03 04:31:12;;;;;;;;;;;;;;;0.14;85.74;102325.88;4970591;28;19950;-31
2022/04/03 04:33:37;;;;;;;;;;;;;;;0.13;86.25;102332.13;4971933;28;19960;-32
2022/04/03 04:36:03;;;;;;;;;;;;;;;0.15;86.33;102332.88;4971758;28;20288;-32
2022/04/03 04:38:28;;;;;;;;;;;;;;;0.16;86.75;102333.75;4954705;28;20246;-31
2022/04/03 04:40:54;;;;;;;;;;;;;;;0.16;86.37;102325.81;4970435;28;19957;-34
2022/04/03 04:43:20;;;;;;;;;;;;;;;0.17;86.62;102325.72;4954692;28;19918;-33
2022/04/03 04:45:45;;;;;;;;;;;;;;;0.18;86.66;102324.75;4970826;28;19968;-32
2022/04/03 04:48:10;;;;;;;;;;;;;;;0.19;86.50;102326.50;4971828;28;19914;-32
2022/04/03 04:50:35;;;;;;;;;;;;;;;0.17;86.43;102331.00;4971882;28;19922;-32
2022/04/03 04:53:00;;;;;;;;;;;;;;;0.13;86.01;102328.59;4971682;28;19926;-31
2022/04/03 04:55:26;;;;;;;;;;;;;;;0.08;85.96;102331.50;4954367;28;19918;-31
2022/04/03 04:57:54;;;;;;;;;;;;;;;0.03;86.06;102330.84;4971663;28;19914;-32
2022/04/03 05:00:20;;;;;;;;;;;;;;;0.00;86.42;102331.03;4971752;28;19967;-33
2022/04/03 05:02:46;;;;;;;;;;;;;;;-0.04;86.20;102324.16;4954149;28;20005;-32
2022/04/03 05:05:15;;;;;;;;;;;;;;;-0.10;86.57;102327.13;4971695;28;19914;-32
2022/04/03 05:07:40;;;;;;;;;;;;;;;-0.11;86.55;102317.44;4971361;28;19918;-32
2022/04/03 05:10:06;;;;;;;;;;;;;;;-0.12;87.17;102318.38;4953982;28;19914;-31
2022/04/03 05:12:31;;;;;;;;;;;;;;;-0.13;87.63;102314.00;4970270;28;19945;-33
2022/04/03 05:14:58;;;;;;;;;;;;;;;-0.11;87.58;102317.44;4971310;28;19937;-32
2022/04/03 05:17:23;;;;;;;;;;;;;;;-0.11;87.55;102322.75;4971558;28;20313;-32
2022/04/03 05:19:48;;;;;;;;;;;;;;;-0.06;88.05;102329.50;4971380;28;19921;-35
2022/04/03 05:22:13;;;;;;;;;;;;;;;-0.01;88.07;102329.28;4971339;28;19918;-32
2022/04/03 05:24:38;;;;;;;;;;;;;;;0.07;88.13;102323.63;4971420;28;19918;-32
2022/04/03 05:27:05;;;;;;;;;;;;;;;0.11;88.49;102327.84;4971111;28;19918;-34
2022/04/03 05:29:31;;;;;;;;;;;;;;;0.16;88.24;102325.81;4971469;28;20107;-34
2022/04/03 05:31:56;;;;;;;;;;;;;;;0.25;88.04;102324.47;4971121;28;19918;-33
2022/04/03 05:34:21;;;;;;;;;;;;;;;0.33;88.27;102327.56;4971180;28;20024;-31
2022/04/03 05:36:46;;;;;;;;;;;;;;;0.36;87.57;102316.81;4969699;28;19964;-33
2022/04/03 05:39:12;;;;;;;;;;;;;;;0.40;87.20;102311.28;4969733;28;19914;-31
2022/04/03 05:41:38;;;;;;;;;;;;;;;0.46;87.02;102311.91;4969652;28;19925;-31
2022/04/03 05:44:03;;;;;;;;;;;;;;;0.49;86.70;102312.59;4971094;28;19914;-33
2022/04/03 05:46:29;;;;;;;;;;;;;;;0.56;86.85;102315.78;4971129;28;19920;-32
2022/04/03 05:48:54;;;;;;;;;;;;;;;0.77;86.04;102316.44;4953466;28;20331;-37
2022/04/03 05:51:19;;;;;;;;;;;;;;;1.29;85.98;102306.50;4969807;28;20020;-31
2022/04/03 05:53:45;;;;;;;;;;;;;;;2.11;84.95;102312.44;4970767;28;19958;-34
2022/04/03 05:56:11;;;;;;;;;;;;;;;2.84;81.23;102315.06;4969500;28;20016;-34
2022/04/03 05:58:37;;;;;;;;;;;;;;;3.57;76.38;102312.19;4970808;28;19921;-35
2022/04/03 06:01:02;;;;;;;;;;;;;;;4.20;73.54;102309.81;4970938;28;19914;-32
2022/04/03 06:03:27;;;;;;;;;;;;;;;4.65;70.33;102326.25;4970627;28;20120;-32
2022/04/03 06:05:52;;;;;;;;;;;;;;;4.84;68.87;102321.31;4970581;28;20367;-31
2022/04/03 06:08:18;;;;;;;;;;;;;;;4.78;68.74;102327.09;4952892;28;20432;-33
2022/04/03 06:10:43;;;;;;;;;;;;;;;4.52;69.01;102324.44;4969380;28;20395;-33
2022/04/03 06:13:09;;;;;;;;;;;;;;;4.38;69.76;102325.38;4969286;28;20029;-33
2022/04/03 06:15:36;;;;;;;;;;;;;;;4.35;70.34;102335.41;4970454;28;19917;-32
2022/04/03 06:18:02;;;;;;;;;;;;;;;4.32;70.91;102339.16;4970863;28;19914;-32
2022/04/03 06:20:27;;;;;;;;;;;;;;;4.28;71.36;102334.97;4969127;28;19956;-34
2022/04/03 06:22:52;;;;;;;;;;;;;;;4.18;71.07;102337.38;4969448;28;19922;-34
2022/04/03 06:25:18;;;;;;;;;;;;;;;4.14;71.42;102337.72;4969377;28;19914;-31
2022/04/03 06:27:43;;;;;;;;;;;;;;;4.09;72.04;102340.69;4969300;28;19914;-30
2022/04/03 06:30:09;;;;;;;;;;;;;;;4.21;72.10;102340.81;4970531;28;19963;-33
2022/04/03 06:32:34;;;;;;;;;;;;;;;4.25;71.26;102345.84;4969363;28;20012;-31
2022/04/03 06:34:59;;;;;;;;;;;;;;;4.31;71.50;102350.75;4969018;28;19914;-32
2022/04/03 06:37:24;;;;;;;;;;;;;;;4.31;71.21;102340.09;4970479;28;20007;-33
2022/04/03 06:39:50;;;;;;;;;;;;;;;4.31;70.78;102339.22;4952098;28;19965;-31
2022/04/03 06:42:15;;;;;;;;;;;;;;;4.42;70.77;102342.00;4968999;28;19968;-33
2022/04/03 06:44:40;;;;;;;;;;;;;;;4.52;70.49;102347.56;4968981;28;19940;-32
2022/04/03 06:47:06;;;;;;;;;;;;;;;4.58;69.76;102350.69;4970363;28;19921;-33
2022/04/03 06:49:31;;;;;;;;;;;;;;;4.87;69.05;102346.94;4969068;28;19914;-34
2022/04/03 06:51:56;;;;;;;;;;;;;;;5.28;66.85;102352.00;4970233;28;19914;-34
2022/04/03 06:54:22;;;;;;;;;;;;;;;6.41;65.85;102352.59;4970019;28;19918;-33
2022/04/03 06:56:47;;;;;;;;;;;;;;;7.69;61.75;102346.88;4968521;28;20229;-34
2022/04/03 06:59:12;;;;;;;;;;;;;;;8.48;58.44;102355.44;4968720;28;19925;-35
2022/04/03 07:01:38;;;;;;;;;;;;;;;9.13;55.04;102347.16;4970150;28;19918;-32
2022/04/03 07:04:04;;;;;;;;;;;;;;;9.73;53.08;102348.00;4970004;28;20009;-35
2022/04/03 07:06:29;;;;;;;;;;;;;;;10.24;50.82;102351.41;4970462;28;19914;-32
2022/04/03 07:08:54;;;;;;;;;;;;;;;10.31;49.42;102353.44;4969905;28;20418;-31
2022/04/03 07:11:20;;;;;;;;;;;;;;;10.84;49.26;102367.38;4968585;28;20388;-31
2022/04/03 07:13:45;;;;;;;;;;;;;;;11.31;47.59;102364.63;4969987;28;20265;-33
2022/04/03 07:16:11;;;;;;;;;;;;;;;10.39;47.84;102362.63;4969866;28;19920;-32
2022/04/03 07:18:36;;;;;;;;;;;;;;;9.24;50.57;102363.16;4968338;28;19914;-32
2022/04/03 07:21:01;;;;;;;;;;;;;;;8.19;53.30;102363.25;4968322;28;20233;-31
2022/04/03 07:23:27;;;;;;;;;;;;;;;7.38;55.79;102364.59;4969788;28;19924;-34
2022/04/03 07:25:52;;;;;;;;;;;;;;;6.93;58.65;102369.94;4968346;28;19922;-33
2022/04/03 07:28:17;;;;;;;;;;;;;;;6.50;60.93;102379.50;4968441;28;19921;-33
2022/04/03 07:30:42;;;;;;;;;;;;;;;6.22;62.16;102379.88;4968144;28;19928;-34
2022/04/03 07:33:08;;;;;;;;;;;;;;;6.01;63.80;102375.19;4969424;28;19914;-32
2022/04/03 07:35:33;;;;;;;;;;;;;;;5.84;65.27;102373.72;4969335;28;19957;-33
2022/04/03 07:37:58;;;;;;;;;;;;;;;5.67;66.06;102369.63;4968199;28;19993;-31
2022/04/03 07:40:23;;;;;;;;;;;;;;;5.60;66.74;102375.50;4968003;28;20360;-34
2022/04/03 07:42:50;;;;;;;;;;;;;;;5.46;67.06;102366.69;4969495;28;19945;-32
2022/04/03 07:45:15;;;;;;;;;;;;;;;5.40;67.68;102364.47;4968093;28;19978;-34
2022/04/03 07:47:45;;;;;;;;;;;;;;;5.43;68.14;102364.25;4969405;28;19937;-32
2022/04/03 07:50:12;;;;;;;;;;;;;;;5.41;67.08;102366.16;4969453;28;19947;-31
2022/04/03 07:52:38;;;;;;;;;;;;;;;5.94;66.48;102377.44;4969367;28;20446;-32
2022/04/03 07:55:03;;;;;;;;;;;;;;;7.41;62.88;102365.19;4967655;28;19918;-32
2022/04/03 07:57:29;;;;;;;;;;;;;;;8.62;58.14;102364.16;4969416;28;19914;-32
2022/04/03 07:59:55;;;;;;;;;;;;;;;9.63;53.02;102361.44;4969293;28;19914;-32
2022/04/03 08:02:21;;;;;;;;;;;;;;;10.72;50.48;102367.53;4967435;28;19917;-34
2022/04/03 08:04:46;;;;;;;;;;;;;;;11.06;48.43;102364.31;4969020;28;19914;-32
2022/04/03 08:07:12;;;;;;;;;;;;;;;11.47;47.58;102375.59;4967679;28;19926;-32
2022/04/03 08:09:37;;;;;;;;;;;;;;;12.15;45.71;102371.63;4968612;28;19957;-34
2022/04/03 08:12:03;;;;;;;;;;;;;;;12.51;43.40;102376.00;4969260;28;19995;-32
2022/04/03 08:14:29;;;;;;;;;;;;;;;13.34;43.80;102375.47;4967540;28;19925;-31
2022/04/03 08:16:54;;;;;;;;;;;;;;;13.95;41.89;102386.16;4968856;28;19914;-34
2022/04/03 08:19:19;;;;;;;;;;;;;;;14.27;41.41;102372.66;4969043;28;19932;-35
2022/04/03 08:21:44;;;;;;;;;;;;;;;15.00;40.44;102379.00;4968936;28;20075;-31
2022/04/03 08:24:09;;;;;;;;;;;;;;;15.43;37.41;102379.56;4967722;28;19961;-31
2022/04/03 08:26:35;;;;;;;;;;;;;;;15.92;36.69;102378.47;4968953;28;19921;-33
2022/04/03 08:29:01;;;;;;;;;;;;;;;15.25;38.63;102381.66;4967657;28;19914;-32
2022/04/03 08:31:27;;;;;;;;;;;;;;;15.29;38.21;102377.56;4968716;28;19949;-32
2022/04/03 08:33:53;;;;;;;;;;;;;;;15.30;37.62;102374.69;4951553;28;20368;-33
2022/04/03 08:36:18;;;;;;;;;;;;;;;14.00;40.30;102378.38;4967181;28;19914;-32
2022/04/03 08:38:43;;;;;;;;;;;;;;;12.79;43.49;102373.13;4968773;28;19968;-31
2022/04/03 08:41:09;;;;;;;;;;;;;;;11.64;46.46;102377.50;4968717;28;20229;-32
2022/04/03 08:43:34;;;;;;;;;;;;;;;9.74;49.10;102365.88;4968560;28;19933;-31
2022/04/03 08:46:00;;;;;;;;;;;;;;;9.17;52.25;102378.13;4968611;28;20020;-32
2022/04/03 08:48:26;;;;;;;;;;;;;;;8.97;53.41;102371.81;4968409;28;19928;-33
2022/04/03 08:50:51;;;;;;;;;;;;;;;8.80;51.79;102373.31;4968354;28;19914;-32
2022/04/03 08:53:17;;;;;;;;;;;;;;;8.81;52.23;102371.47;4967318;28;20277;-32
2022/04/03 08:55:42;;;;;;;;;;;;;;;8.71;53.12;102371.41;4967020;28;20404;-31
2022/04/03 08:58:07;;;;;;;;;;;;;;;9.22;49.90;102373.22;4968457;28;19914;-35
2022/04/03 09:00:33;;;;;;;;;;;;;;;9.49;48.11;102369.06;4968320;28;20004;-35
2022/04/03 09:02:58;;;;;;;;;;;;;;;9.75;44.22;102367.56;4968353;28;19914;-33
2022/04/03 09:05:23;;;;;;;;;;;;;;;9.60;45.49;102374.31;4971341;28;19914;-32
2022/04/03 09:08:00;;;;;;;;;;;;;;;9.35;46.67;102376.50;4954165;28;20323;-32
2022/04/03 09:10:25;;;;;;;;;;;;;;;9.29;44.60;102374.34;4970284;28;19922;-33
2022/04/03 09:12:51;;;;;;;;;;;;;;;9.00;47.53;102375.09;4971520;28;19914;-32
2022/04/03 09:15:17;;;;;;;;;;;;;;;8.59;54.84;102394.78;4969991;28;20304;-33
2022/04/03 09:17:52;;;;;;;;;;;;;;;8.06;59.25;102386.72;4953850;28;19964;-36
2022/04/03 09:20:28;;;;;;;;;;;;;;;7.19;64.35;102389.31;4971668;28;20273;-33
2022/04/03 09:22:54;;;;;;;;;;;;;;;6.78;67.70;102380.88;4971267;28;19940;-35
2022/04/03 09:25:23;;;;;;;;;;;;;;;6.73;69.18;102380.38;4970042;28;19917;-36
2022/04/03 09:27:49;;;;;;;;;;;;;;;6.59;67.40;102378.78;4969763;28;20331;-32
2022/04/03 09:30:15;;;;;;;;;;;;;;;6.57;69.20;102375.34;4970101;28;19914;-32
2022/04/03 09:32:46;;;;;;;;;;;;;;;6.68;70.00;102382.56;4971444;28;19914;-33
2022/04/03 09:35:12;;;;;;;;;;;;;;;6.75;69.31;102373.09;4971422;28;19914;-34
2022/04/03 09:37:37;;;;;;;;;;;;;;;7.03;69.17;102376.28;4969847;28;20327;-31
2022/04/03 09:40:03;;;;;;;;;;;;;;;7.65;68.11;102375.72;4969804;28;19914;-33
2022/04/03 09:42:29;;;;;;;;;;;;;;;8.13;66.59;102366.44;4970583;28;19921;-34
2022/04/03 09:44:55;;;;;;;;;;;;;;;8.67;63.80;102367.28;4969568;28;19914;-32
2022/04/03 09:47:21;;;;;;;;;;;;;;;9.25;59.13;102367.56;4970883;28;19914;-33
2022/04/03 09:50:12;;;;;;;;;;;;;;;9.50;57.15;102368.06;4971056;28;20356;-32
2022/04/03 09:52:40;;;;;;;;;;;;;;;9.42;58.22;102361.53;4967926;28;20342;-33
2022/04/03 09:55:28;;;;;;;;;;;;;;;9.51;56.75;102365.25;4970515;28;19920;-34
2022/04/03 09:58:03;;;;;;;;;;;;;;;9.95;55.77;102367.56;4970720;28;19914;-34
2022/04/03 10:00:29;;;;;;;;;;;;;;;10.37;54.81;102362.78;4953207;28;20005;-33
2022/04/03 10:02:59;;;;;;;;;;;;;;;10.45;53.17;102360.25;4969181;28;20340;-32
2022/04/03 10:05:25;;;;;;;;;;;;;;;11.08;52.21;102351.53;4969352;28;19914;-34
2022/04/03 10:07:51;;;;;;;;;;;;;;;11.75;48.00;102356.72;4952721;28;20001;-32
2022/04/03 10:10:16;;;;;;;;;;;;;;;12.26;46.32;102350.63;4969172;28;20348;-33
2022/04/03 10:12:41;;;;;;;;;;;;;;;12.32;45.72;102346.47;4969131;28;19910;-32
2022/04/03 10:15:06;;;;;;;;;;;;;;;11.81;47.23;102342.59;4969568;28;19914;-31
2022/04/03 10:17:31;;;;;;;;;;;;;;;11.47;47.50;102340.56;4970477;28;19925;-34
2022/04/03 10:19:57;;;;;;;;;;;;;;;10.80;49.37;102360.59;4969345;28;19914;-33
2022/04/03 10:22:23;;;;;;;;;;;;;;;10.50;48.96;102346.31;4970349;28;19918;-32
2022/04/03 10:24:50;;;;;;;;;;;;;;;10.06;50.44;102359.38;4952927;28;20332;-32
2022/04/03 10:27:20;;;;;;;;;;;;;;;9.71;54.19;102354.53;4969960;28;19953;-33
2022/04/03 10:29:47;;;;;;;;;;;;;;;9.71;54.98;102363.44;4970432;28;20895;-31
2022/04/03 10:32:23;;;;;;;;;;;;;;;9.64;58.02;102362.31;4970219;28;19921;-33
2022/04/03 10:34:49;;;;;;;;;;;;;;;9.96;58.02;102369.28;4969083;28;19914;-31
2022/04/03 10:37:29;;;;;;;;;;;;;;;10.25;56.95;102375.50;4968751;28;19914;-33
2022/04/03 10:39:54;;;;;;;;;;;;;;;10.54;54.12;102363.91;4968973;28;20367;-36
2022/04/03 10:42:26;;;;;;;;;;;;;;;10.26;55.35;102361.06;4970091;28;19922;-32
2022/04/03 10:45:27;;;;;;;;;;;;;;;10.32;54.93;102368.59;4970108;28;19914;-34
2022/04/03 10:47:54;;;;;;;;;;;;;;;11.00;53.58;102354.13;4910018;29;19915;-34
2022/04/03 10:50:19;;;;;;;;;;;;;;;11.10;52.43;102360.31;4953559;28;20312;-34
2022/04/03 10:52:44;;;;;;;;;;;;;;;11.64;50.50;102364.03;4969855;28;19914;-35
2022/04/03 10:55:29;;;;;;;;;;;;;;;11.35;51.88;102357.97;4968618;28;19925;-35
2022/04/03 10:58:02;;;;;;;;;;;;;;;12.12;47.79;102358.47;4968800;28;19960;-34
2022/04/03 11:00:27;;;;;;;;;;;;;;;12.19;48.65;102356.81;4970026;28;19921;-36
2022/04/03 11:02:55;;;;;;;;;;;;;;;12.27;47.18;102359.59;4968559;28;20125;-36
2022/04/03 11:05:26;;;;;;;;;;;;;;;12.37;46.61;102346.84;4969932;28;20005;-37
2022/04/03 11:08:01;;;;;;;;;;;;;;;12.57;47.57;102365.56;4969691;28;19951;-36
2022/04/03 11:10:57;;;;;;;;;;;;;;;13.29;46.04;102350.78;4969830;28;20008;-38
2022/04/03 11:13:23;;;;;;;;;;;;;;;13.43;46.96;102345.75;4969723;28;19921;-34
2022/04/03 11:15:48;;;;;;;;;;;;;;;14.08;44.65;102348.59;4969514;28;19914;-35
2022/04/03 11:18:32;;;;;;;;;;;;;;;15.33;40.49;102349.91;4969340;28;19914;-34
2022/04/03 11:21:17;;;;;;;;;;;;;;;15.41;39.19;102348.19;4969705;28;20134;-33
2022/04/03 11:23:50;;;;;;;;;;;;;;;15.48;39.45;102344.59;4969479;28;19914;-36
2022/04/03 11:26:15;;;;;;;;;;;;;;;15.31;41.43;102346.53;4967984;28;19914;-33
2022/04/03 11:28:42;;;;;;;;;;;;;;;15.71;39.12;102350.06;4968051;28;19921;-32
2022/04/03 11:31:07;;;;;;;;;;;;;;;16.85;36.76;102342.88;4968165;28;19914;-33
2022/04/03 11:33:32;;;;;;;;;;;;;;;16.17;37.02;102343.84;4967839;28;19987;-32
2022/04/03 11:36:02;;;;;;;;;;;;;;;16.39;37.44;102348.38;4968066;28;19914;-33
2022/04/03 11:38:32;;;;;;;;;;;;;;;15.68;37.14;102334.13;4968090;28;20332;-32
2022/04/03 11:40:57;;;;;;;;;;;;;;;15.10;38.78;102330.84;4968101;28;19914;-31
2022/04/03 11:43:23;;;;;;;;;;;;;;;15.38;38.26;102327.69;4969139;28;20429;-34
2022/04/03 11:45:57;;;;;;;;;;;;;;;15.75;39.35;102328.88;4969190;28;20416;-34
2022/04/03 11:48:24;;;;;;;;;;;;;;;17.33;35.66;102316.09;4967802;28;20060;-33
2022/04/03 11:50:51;;;;;;;;;;;;;;;17.19;35.99;102322.38;4969379;28;19949;-32
2022/04/03 11:53:18;;;;;;;;;;;;;;;16.79;34.79;102316.41;4969519;28;19914;-34
2022/04/03 11:55:43;;;;;;;;;;;;;;;16.57;34.83;102311.88;4967584;28;20364;-34
2022/04/03 11:58:08;;;;;;;;;;;;;;;16.19;34.77;102320.03;4968979;28;19914;-34
2022/04/03 12:00:33;;;;;;;;;;;;;;;16.03;34.74;102312.84;4969080;28;19918;-32
2022/04/03 12:02:59;;;;;;;;;;;;;;;15.94;35.58;102308.53;4969122;28;20355;-33
2022/04/03 12:05:24;;;;;;;;;;;;;;;15.65;36.63;102307.34;4968644;28;19963;-33
2022/04/03 12:07:50;;;;;;;;;;;;;;;15.92;37.10;102308.69;4968776;28;19922;-32
2022/04/03 12:10:42;;;;;;;;;;;;;;;15.65;36.11;102306.50;4968431;28;19914;-33
2022/04/03 12:13:15;;;;;;;;;;;;;;;16.35;35.25;102292.72;4966187;28;19914;-32
2022/04/03 12:15:40;;;;;;;;;;;;;;;16.58;34.18;102302.69;4968876;28;19914;-32
2022/04/03 12:18:08;;;;;;;;;;;;;;;16.83;33.48;102295.97;4967785;28;19914;-32
2022/04/03 12:20:35;;;;;;;;;;;;;;;16.64;34.96;102296.47;4967633;28;19918;-34
2022/04/03 12:23:00;;;;;;;;;;;;;;;17.09;32.42;102297.38;4967613;28;19921;-32
2022/04/03 12:25:26;;;;;;;;;;;;;;;17.17;33.38;102296.41;4968799;28;19910;-35
2022/04/03 12:27:51;;;;;;;;;;;;;;;17.04;33.45;102297.09;4968945;28;19914;-32
2022/04/03 12:30:16;;;;;;;;;;;;;;;16.91;33.31;102291.47;4967214;28;19940;-34
2022/04/03 12:32:43;;;;;;;;;;;;;;;16.62;34.14;102295.84;4967350;28;19914;-31
2022/04/03 12:35:09;;;;;;;;;;;;;;;16.32;34.63;102293.06;4967435;28;20013;-35
2022/04/03 12:37:35;;;;;;;;;;;;;;;16.86;34.64;102283.88;4967975;28;19914;-35
2022/04/03 12:40:02;;;;;;;;;;;;;;;17.52;32.47;102290.13;4970888;28;19960;-34